sensor_id;sensor_type;location;lat;lon;timestamp;pressure;altitude;pressure_sealevel;temperature;humidity
8637;BME280;4356;49.068;8.658;2024-03-22T00:01:48;100636.75;;;18.73;43.67
8637;BME280;4356;49.068;8.658;2024-03-22T00:04:14;100633.41;;;18.71;43.65
8637;BME280;4356;49.068;8.658;2024-03-22T00:06:45;100633.41;;;18.71;43.54
8637;BME280;4356;49.068;8.658;2024-03-22T00:09:11;100629.59;;;18.65;43.67
8637;BME280;4356;49.068;8.658;2024-03-22T00:11:37;100627.72;;;18.66;43.65
8637;BME280;4356;49.068;8.658;2024-03-22T00:14:03;100627.94;;;18.64;43.94
8637;BME280;4356;49.068;8.658;2024-03-22T00:16:29;100626.25;;;18.63;43.70
8637;BME280;4356;49.068;8.658;2024-03-22T00:18:54;100614.94;;;18.60;43.69
8637;BME280;4356;49.068;8.658;2024-03-22T00:21:21;100612.41;;;18.58;43.79
8637;BME280;4356;49.068;8.658;2024-03-22T00:23:46;100615.56;;;18.62;43.67
8637;BME280;4356;49.068;8.658;2024-03-22T00:26:12;100610.34;;;18.60;43.61
8637;BME280;4356;49.068;8.658;2024-03-22T00:28:37;100582.88;;;18.48;43.71
8637;BME280;4356;49.068;8.658;2024-03-22T00:31:03;100606.53;;;18.55;43.68
8637;BME280;4356;49.068;8.658;2024-03-22T00:33:28;100601.50;;;18.52;43.66
8637;BME280;4356;49.068;8.658;2024-03-22T00:35:53;100606.53;;;18.55;43.73
8637;BME280;4356;49.068;8.658;2024-03-22T00:38:19;100601.31;;;18.53;43.84
8637;BME280;4356;49.068;8.658;2024-03-22T00:40:44;100594.38;;;18.51;43.48
8637;BME280;4356;49.068;8.658;2024-03-22T00:43:10;100589.78;;;18.51;43.47
8637;BME280;4356;49.068;8.658;2024-03-22T00:45:35;100590.00;;;18.50;43.27
8637;BME280;4356;49.068;8.658;2024-03-22T00:48:00;100584.72;;;18.48;43.76
8637;BME280;4356;49.068;8.658;2024-03-22T00:50:26;100582.66;;;18.43;43.67
8637;BME280;4356;49.068;8.658;2024-03-22T00:52:51;100585.16;;;18.45;43.41
8637;BME280;4356;49.068;8.658;2024-03-22T00:55:18;100568.38;;;18.35;43.56
8637;BME280;4356;49.068;8.658;2024-03-22T00:57:43;100566.31;;;18.43;43.31
8637;BME280;4356;49.068;8.658;2024-03-22T01:00:09;100569.44;;;18.40;43.21
8637;BME280;4356;49.068;8.658;2024-03-22T01:02:35;100580.78;;;18.44;43.47
8637;BME280;4356;49.068;8.658;2024-03-22T01:05:00;100570.91;;;18.43;43.35
8637;BME280;4356;49.068;8.658;2024-03-22T01:07:26;100571.97;;;18.42;43.58
8637;BME280;4356;49.068;8.658;2024-03-22T01:09:51;100562.28;;;18.39;43.16
8637;BME280;4356;49.068;8.658;2024-03-22T01:12:16;100559.56;;;18.39;43.22
8637;BME280;4356;49.068;8.658;2024-03-22T01:14:42;100551.41;;;18.39;42.94
8637;BME280;4356;49.068;8.658;2024-03-22T01:17:07;100554.75;;;18.35;43.29
8637;BME280;4356;49.068;8.658;2024-03-22T01:19:33;100552.03;;;18.35;42.96
8637;BME280;4356;49.068;8.658;2024-03-22T01:21:58;100552.03;;;18.35;43.21
8637;BME280;4356;49.068;8.658;2024-03-22T01:24:23;100537.75;;;18.26;43.24
8637;BME280;4356;49.068;8.658;2024-03-22T01:26:49;100548.47;;;18.34;43.71
8637;BME280;4356;49.068;8.658;2024-03-22T01:29:14;100552.44;;;18.32;43.68
8637;BME280;4356;49.068;8.658;2024-03-22T01:31:39;100544.47;;;18.30;43.40
8637;BME280;4356;49.068;8.658;2024-03-22T01:34:05;100534.00;;;18.27;43.42
8637;BME280;4356;49.068;8.658;2024-03-22T01:36:30;100535.03;;;18.26;43.76
8637;BME280;4356;49.068;8.658;2024-03-22T01:38:56;100527.94;;;18.25;43.44
8637;BME280;4356;49.068;8.658;2024-03-22T01:41:22;100533.16;;;18.27;43.48
8637;BME280;4356;49.068;8.658;2024-03-22T01:43:47;100528.13;;;18.24;43.80
8637;BME280;4356;49.068;8.658;2024-03-22T01:46:13;100530.22;;;18.22;43.66
8637;BME280;4356;49.068;8.658;2024-03-22T01:48:38;100523.94;;;18.21;43.63
8637;BME280;4356;49.068;8.658;2024-03-22T01:51:05;100519.56;;;18.20;43.56
8637;BME280;4356;49.068;8.658;2024-03-22T01:53:30;100521.63;;;18.18;43.76
8637;BME280;4356;49.068;8.658;2024-03-22T01:55:56;100520.56;;;18.19;43.82
8637;BME280;4356;49.068;8.658;2024-03-22T01:58:22;100508.63;;;18.14;43.75
8637;BME280;4356;49.068;8.658;2024-03-22T02:00:48;100502.56;;;18.12;43.80
8637;BME280;4356;49.068;8.658;2024-03-22T02:03:13;100513.88;;;18.15;44.24
8637;BME280;4356;49.068;8.658;2024-03-22T02:05:38;100510.31;;;18.15;43.81
8637;BME280;4356;49.068;8.658;2024-03-22T02:08:04;100498.38;;;18.09;44.03
8637;BME280;4356;49.068;8.658;2024-03-22T02:10:30;100502.38;;;18.13;43.94
8637;BME280;4356;49.068;8.658;2024-03-22T02:12:56;100504.47;;;18.11;44.08
8637;BME280;4356;49.068;8.658;2024-03-22T02:15:21;100503.81;;;18.09;44.09
8637;BME280;4356;49.068;8.658;2024-03-22T02:17:46;100494.38;;;18.05;44.07
8637;BME280;4356;49.068;8.658;2024-03-22T02:20:12;100492.09;;;18.09;44.32
8637;BME280;4356;49.068;8.658;2024-03-22T02:22:38;100498.78;;;18.06;44.06
8637;BME280;4356;49.068;8.658;2024-03-22T02:25:03;100497.31;;;18.04;43.93
8637;BME280;4356;49.068;8.658;2024-03-22T02:27:29;100498.16;;;18.04;44.05
8637;BME280;4356;49.068;8.658;2024-03-22T02:29:54;100500.88;;;18.04;44.34
8637;BME280;4356;49.068;8.658;2024-03-22T02:32:20;100497.31;;;18.04;44.05
8637;BME280;4356;49.068;8.658;2024-03-22T02:34:45;100502.34;;;18.00;44.16
8637;BME280;4356;49.068;8.658;2024-03-22T02:37:10;100500.03;;;18.04;44.17
8637;BME280;4356;49.068;8.658;2024-03-22T02:39:36;100487.69;;;18.01;44.48
8637;BME280;4356;49.068;8.658;2024-03-22T02:42:01;100482.88;;;17.97;44.09
8637;BME280;4356;49.068;8.658;2024-03-22T02:44:26;100493.31;;;18.00;44.49
8637;BME280;4356;49.068;8.658;2024-03-22T02:46:52;100477.38;;;17.90;44.28
8637;BME280;4356;49.068;8.658;2024-03-22T02:49:17;100481.38;;;17.94;44.57
8637;BME280;4356;49.068;8.658;2024-03-22T02:51:43;100485.78;;;17.95;44.64
8637;BME280;4356;49.068;8.658;2024-03-22T02:54:08;100484.09;;;17.94;44.65
8637;BME280;4356;49.068;8.658;2024-03-22T02:56:33;100475.72;;;17.89;44.46
8637;BME280;4356;49.068;8.658;2024-03-22T02:58:59;100480.34;;;17.95;44.34
8637;BME280;4356;49.068;8.658;2024-03-22T03:01:24;100471.75;;;17.92;44.47
8637;BME280;4356;49.068;8.658;2024-03-22T03:03:50;100480.75;;;17.92;44.58
8637;BME280;4356;49.068;8.658;2024-03-22T03:06:15;100472.38;;;17.94;44.52
8637;BME280;4356;49.068;8.658;2024-03-22T03:08:42;100474.66;;;17.90;44.51
8637;BME280;4356;49.068;8.658;2024-03-22T03:11:07;100480.53;;;17.94;44.51
8637;BME280;4356;49.068;8.658;2024-03-22T03:13:33;100474.28;;;17.93;44.26
8637;BME280;4356;49.068;8.658;2024-03-22T03:15:58;100463.38;;;17.87;44.48
8637;BME280;4356;49.068;8.658;2024-03-22T03:18:23;100469.88;;;17.92;44.45
8637;BME280;4356;49.068;8.658;2024-03-22T03:20:49;100476.56;;;17.90;44.56
8637;BME280;4356;49.068;8.658;2024-03-22T03:23:15;100476.56;;;17.90;44.39
8637;BME280;4356;49.068;8.658;2024-03-22T03:25:40;100472.38;;;17.87;44.17
8637;BME280;4356;49.068;8.658;2024-03-22T03:28:05;100475.94;;;17.88;43.88
8637;BME280;4356;49.068;8.658;2024-03-22T03:30:35;100471.09;;;17.83;43.95
8637;BME280;4356;49.068;8.658;2024-03-22T03:33:01;100469.44;;;17.89;44.09
8637;BME280;4356;49.068;8.658;2024-03-22T03:35:26;100471.31;;;17.88;44.00
8637;BME280;4356;49.068;8.658;2024-03-22T03:37:52;100468.16;;;17.85;44.14
8637;BME280;4356;49.068;8.658;2024-03-22T03:40:17;100469.66;;;17.87;44.19
8637;BME280;4356;49.068;8.658;2024-03-22T03:42:43;100468.00;;;17.86;43.74
8637;BME280;4356;49.068;8.658;2024-03-22T03:45:08;100472.38;;;17.87;43.84
8637;BME280;4356;49.068;8.658;2024-03-22T03:47:34;100453.31;;;17.81;44.01
8637;BME280;4356;49.068;8.658;2024-03-22T03:49:59;100436.75;;;17.76;43.77
8637;BME280;4356;49.068;8.658;2024-03-22T03:52:24;100436.97;;;17.74;43.93
8637;BME280;4356;49.068;8.658;2024-03-22T03:54:50;100449.56;;;17.82;44.29
8637;BME280;4356;49.068;8.658;2024-03-22T03:57:15;100438.88;;;17.80;44.05
8637;BME280;4356;49.068;8.658;2024-03-22T03:59:40;100444.13;;;17.82;44.33
8637;BME280;4356;49.068;8.658;2024-03-22T04:02:06;100439.31;;;17.77;44.18
8637;BME280;4356;49.068;8.658;2024-03-22T04:04:31;100453.94;;;17.83;44.11
8637;BME280;4356;49.068;8.658;2024-03-22T04:06:56;100446.41;;;17.78;44.40
8637;BME280;4356;49.068;8.658;2024-03-22T04:09:22;100451.63;;;17.80;44.38
8637;BME280;4356;49.068;8.658;2024-03-22T04:11:47;100449.34;;;17.77;43.97
8637;BME280;4356;49.068;8.658;2024-03-22T04:14:13;100452.69;;;17.79;44.54
8637;BME280;4356;49.068;8.658;2024-03-22T04:16:38;100449.34;;;17.77;44.20
8637;BME280;4356;49.068;8.658;2024-03-22T04:19:04;100453.91;;;17.76;43.92
8637;BME280;4356;49.068;8.658;2024-03-22T04:21:29;100451.41;;;17.75;44.15
8637;BME280;4356;49.068;8.658;2024-03-22T04:23:54;100444.69;;;17.71;44.11
8637;BME280;4356;49.068;8.658;2024-03-22T04:26:20;100445.13;;;17.68;43.96
8637;BME280;4356;49.068;8.658;2024-03-22T04:28:46;100467.50;;;17.76;44.09
8637;BME280;4356;49.068;8.658;2024-03-22T04:31:11;100453.28;;;17.74;44.20
8637;BME280;4356;49.068;8.658;2024-03-22T04:33:37;100448.47;;;17.70;44.18
8637;BME280;4356;49.068;8.658;2024-03-22T04:36:03;100450.13;;;17.71;44.00
8637;BME280;4356;49.068;8.658;2024-03-22T04:38:30;100445.13;;;17.68;44.11
8637;BME280;4356;49.068;8.658;2024-03-22T04:40:56;100446.56;;;17.70;43.93
8637;BME280;4356;49.068;8.658;2024-03-22T04:43:23;100450.56;;;17.68;44.08
8637;BME280;4356;49.068;8.658;2024-03-22T04:45:49;100461.22;;;17.69;44.18
8637;BME280;4356;49.068;8.658;2024-03-22T04:48:18;100444.28;;;17.67;43.98
8637;BME280;4356;49.068;8.658;2024-03-22T04:50:45;100447.00;;;17.67;43.97
8637;BME280;4356;49.068;8.658;2024-03-22T04:53:10;100451.56;;;17.67;44.29
8637;BME280;4356;49.068;8.658;2024-03-22T04:55:36;100437.56;;;17.63;44.32
8637;BME280;4356;49.068;8.658;2024-03-22T04:58:03;100447.19;;;17.66;44.19
8637;BME280;4356;49.068;8.658;2024-03-22T05:00:28;100449.72;;;17.67;44.07
8637;BME280;4356;49.068;8.658;2024-03-22T05:02:54;100441.34;;;17.62;44.16
8637;BME280;4356;49.068;8.658;2024-03-22T05:05:20;100436.75;;;17.63;44.19
8637;BME280;4356;49.068;8.658;2024-03-22T05:07:45;100436.75;;;17.63;44.43
8637;BME280;4356;49.068;8.658;2024-03-22T05:10:11;100436.91;;;17.61;44.29
8637;BME280;4356;49.068;8.658;2024-03-22T05:12:37;100433.38;;;17.61;44.14
8637;BME280;4356;49.068;8.658;2024-03-22T05:15:03;100431.91;;;17.58;44.61
8637;BME280;4356;49.068;8.658;2024-03-22T05:17:29;100423.09;;;17.56;44.35
8637;BME280;4356;49.068;8.658;2024-03-22T05:19:57;100427.31;;;17.59;44.35
8637;BME280;4356;49.068;8.658;2024-03-22T05:22:22;100422.09;;;17.57;44.51
8637;BME280;4356;49.068;8.658;2024-03-22T05:24:47;100421.44;;;17.55;44.42
8637;BME280;4356;49.068;8.658;2024-03-22T05:27:13;100419.75;;;17.54;44.53
8637;BME280;4356;49.068;8.658;2024-03-22T05:29:38;100417.88;;;17.55;44.35
8637;BME280;4356;49.068;8.658;2024-03-22T05:32:04;100419.97;;;17.53;44.86
8637;BME280;4356;49.068;8.658;2024-03-22T05:34:30;100406.59;;;17.51;44.43
8637;BME280;4356;49.068;8.658;2024-03-22T05:36:55;100402.00;;;17.52;44.77
8637;BME280;4356;49.068;8.658;2024-03-22T05:39:20;100401.16;;;17.51;44.75
8637;BME280;4356;49.068;8.658;2024-03-22T05:41:46;100401.16;;;17.51;44.72
8637;BME280;4356;49.068;8.658;2024-03-22T05:44:11;100387.09;;;17.41;44.81
8637;BME280;4356;49.068;8.658;2024-03-22T05:46:37;100402.75;;;17.45;44.69
8637;BME280;4356;49.068;8.658;2024-03-22T05:49:02;100414.72;;;17.51;44.68
8637;BME280;4356;49.068;8.658;2024-03-22T05:51:28;100409.50;;;17.50;44.48
8637;BME280;4356;49.068;8.658;2024-03-22T05:53:55;100401.91;;;17.45;44.50
8637;BME280;4356;49.068;8.658;2024-03-22T05:56:21;100379.53;;;17.36;44.46
8637;BME280;4356;49.068;8.658;2024-03-22T05:58:46;100405.09;;;17.48;44.60
8637;BME280;4356;49.068;8.658;2024-03-22T06:01:12;100411.38;;;17.49;44.61
8637;BME280;4356;49.068;8.658;2024-03-22T06:03:37;100398.56;;;17.43;44.59
8637;BME280;4356;49.068;8.658;2024-03-22T06:06:03;100415.16;;;17.48;44.79
8637;BME280;4356;49.068;8.658;2024-03-22T06:08:28;100412.88;;;17.52;44.78
8637;BME280;4356;49.068;8.658;2024-03-22T06:10:55;100415.59;;;17.52;45.04
8637;BME280;4356;49.068;8.658;2024-03-22T06:13:23;100413.88;;;17.51;45.01
8637;BME280;4356;49.068;8.658;2024-03-22T06:15:49;100408.25;;;17.52;45.11
8637;BME280;4356;49.068;8.658;2024-03-22T06:18:14;100409.53;;;17.56;44.90
8637;BME280;4356;49.068;8.658;2024-03-22T06:20:40;100403.25;;;17.56;44.92
8637;BME280;4356;49.068;8.658;2024-03-22T06:23:05;100392.78;;;17.53;45.23
8637;BME280;4356;49.068;8.658;2024-03-22T06:25:31;100398.25;;;17.59;45.15
8637;BME280;4356;49.068;8.658;2024-03-22T06:27:56;100396.34;;;17.60;44.84
8637;BME280;4356;49.068;8.658;2024-03-22T06:30:21;100385.28;;;17.55;45.08
8637;BME280;4356;49.068;8.658;2024-03-22T06:32:47;100398.47;;;17.64;45.31
8637;BME280;4356;49.068;8.658;2024-03-22T06:35:12;100388.25;;;17.66;45.25
8637;BME280;4356;49.068;8.658;2024-03-22T06:37:39;100380.91;;;17.67;45.41
8637;BME280;4356;49.068;8.658;2024-03-22T06:40:06;100380.91;;;17.67;45.37
8637;BME280;4356;49.068;8.658;2024-03-22T06:42:32;100381.34;;;17.70;45.56
8637;BME280;4356;49.068;8.658;2024-03-22T06:44:57;100382.59;;;17.74;45.47
8637;BME280;4356;49.068;8.658;2024-03-22T06:47:22;100374.44;;;17.74;45.40
8637;BME280;4356;49.068;8.658;2024-03-22T06:49:48;100349.13;;;17.67;45.42
8637;BME280;4356;49.068;8.658;2024-03-22T06:52:14;100362.13;;;17.78;45.63
8637;BME280;4356;49.068;8.658;2024-03-22T06:54:40;100358.34;;;17.79;45.45
8637;BME280;4356;49.068;8.658;2024-03-22T06:57:06;100358.78;;;17.83;45.10
8637;BME280;4356;49.068;8.658;2024-03-22T06:59:32;100352.53;;;17.82;45.18
8637;BME280;4356;49.068;8.658;2024-03-22T07:01:57;100364.88;;;17.91;45.34
8637;BME280;4356;49.068;8.658;2024-03-22T07:04:23;100361.94;;;17.93;45.23
8637;BME280;4356;49.068;8.658;2024-03-22T07:06:48;100354.81;;;17.92;45.42
8637;BME280;4356;49.068;8.658;2024-03-22T07:09:14;100356.50;;;17.99;44.99
8637;BME280;4356;49.068;8.658;2024-03-22T07:11:39;100372.22;;;18.04;44.91
8637;BME280;4356;49.068;8.658;2024-03-22T07:14:05;100361.97;;;18.06;44.63
8637;BME280;4356;49.068;8.658;2024-03-22T07:16:30;100338.94;;;17.95;44.81
8637;BME280;4356;49.068;8.658;2024-03-22T07:18:55;100357.78;;;18.10;44.57
8637;BME280;4356;49.068;8.658;2024-03-22T07:21:21;100360.31;;;18.11;44.03
8637;BME280;4356;49.068;8.658;2024-03-22T07:23:46;100350.88;;;18.14;44.12
8637;BME280;4356;49.068;8.658;2024-03-22T07:26:12;100347.09;;;18.08;43.90
8637;BME280;4356;49.068;8.658;2024-03-22T07:28:37;100361.97;;;18.19;43.91
8637;BME280;4356;49.068;8.658;2024-03-22T07:31:02;100361.56;;;18.22;43.85
8637;BME280;4356;49.068;8.658;2024-03-22T07:33:28;100346.91;;;18.16;43.78
8637;BME280;4356;49.068;8.658;2024-03-22T07:35:53;100343.78;;;18.26;43.51
8637;BME280;4356;49.068;8.658;2024-03-22T07:38:20;100352.56;;;18.28;43.22
8637;BME280;4356;49.068;8.658;2024-03-22T07:40:45;100346.91;;;18.29;43.41
8637;BME280;4356;49.068;8.658;2024-03-22T07:43:11;100338.53;;;18.31;43.67
8637;BME280;4356;49.068;8.658;2024-03-22T07:45:38;100339.97;;;18.33;43.48
8637;BME280;4356;49.068;8.658;2024-03-22T07:48:04;100335.38;;;18.34;43.48
8637;BME280;4356;49.068;8.658;2024-03-22T07:50:29;100341.88;;;18.39;43.20
8637;BME280;4356;49.068;8.658;2024-03-22T07:52:55;100344.00;;;18.44;43.32
8637;BME280;4356;49.068;8.658;2024-03-22T07:55:22;100343.78;;;18.45;43.49
8637;BME280;4356;49.068;8.658;2024-03-22T07:57:47;100341.69;;;18.48;43.53
8637;BME280;4356;49.068;8.658;2024-03-22T08:00:13;100321.78;;;18.47;43.45
8637;BME280;4356;49.068;8.658;2024-03-22T08:02:38;100321.16;;;18.52;43.07
8637;BME280;4356;49.068;8.658;2024-03-22T08:05:04;100312.16;;;18.51;43.21
8637;BME280;4356;49.068;8.658;2024-03-22T08:07:30;100315.94;;;18.57;43.24
8637;BME280;4356;49.068;8.658;2024-03-22T08:09:55;100311.13;;;18.59;43.17
8637;BME280;4356;49.068;8.658;2024-03-22T08:12:21;100309.63;;;18.63;43.10
8637;BME280;4356;49.068;8.658;2024-03-22T08:14:47;100312.16;;;18.64;42.69
8637;BME280;4356;49.068;8.658;2024-03-22T08:17:12;100303.31;;;18.69;43.06
8637;BME280;4356;49.068;8.658;2024-03-22T08:19:38;100310.88;;;18.73;42.98
8637;BME280;4356;49.068;8.658;2024-03-22T08:22:03;100306.88;;;18.76;42.93
8637;BME280;4356;49.068;8.658;2024-03-22T08:24:29;100302.88;;;18.78;42.76
8637;BME280;4356;49.068;8.658;2024-03-22T08:26:55;100300.56;;;18.82;43.08
8637;BME280;4356;49.068;8.658;2024-03-22T08:29:21;100302.00;;;18.84;42.92
8637;BME280;4356;49.068;8.658;2024-03-22T08:31:46;100302.44;;;18.88;43.14
8637;BME280;4356;49.068;8.658;2024-03-22T08:34:12;100297.59;;;18.90;43.13
8637;BME280;4356;49.068;8.658;2024-03-22T08:36:37;100290.28;;;18.90;43.28
8637;BME280;4356;49.068;8.658;2024-03-22T08:39:03;100287.09;;;18.93;43.06
8637;BME280;4356;49.068;8.658;2024-03-22T08:41:28;100284.19;;;18.95;42.83
8637;BME280;4356;49.068;8.658;2024-03-22T08:43:53;100293.16;;;19.02;42.74
8637;BME280;4356;49.068;8.658;2024-03-22T08:46:19;100287.50;;;19.03;42.88
8637;BME280;4356;49.068;8.658;2024-03-22T08:48:46;100288.75;;;19.07;42.94
8637;BME280;4356;49.068;8.658;2024-03-22T08:51:12;100285.81;;;19.09;42.95
8637;BME280;4356;49.068;8.658;2024-03-22T08:53:37;100276.59;;;19.03;43.01
8637;BME280;4356;49.068;8.658;2024-03-22T08:56:03;100280.94;;;19.17;42.64
8637;BME280;4356;49.068;8.658;2024-03-22T08:58:28;100286.78;;;19.21;42.70
8637;BME280;4356;49.068;8.658;2024-03-22T09:00:54;100266.47;;;19.17;42.76
8637;BME280;4356;49.068;8.658;2024-03-22T09:03:20;100279.84;;;19.25;42.77
8637;BME280;4356;49.068;8.658;2024-03-22T09:05:46;100267.88;;;19.26;42.70
8637;BME280;4356;49.068;8.658;2024-03-22T09:08:12;100256.78;;;19.27;42.54
8637;BME280;4356;49.068;8.658;2024-03-22T09:10:37;100259.50;;;19.34;42.74
8637;BME280;4356;49.068;8.658;2024-03-22T09:13:03;100267.84;;;19.39;42.47
8637;BME280;4356;49.068;8.658;2024-03-22T09:15:28;100264.09;;;19.40;42.48
8637;BME280;4356;49.068;8.658;2024-03-22T09:17:54;100259.66;;;19.39;42.71
8637;BME280;4356;49.068;8.658;2024-03-22T09:20:19;100256.53;;;19.42;42.61
8637;BME280;4356;49.068;8.658;2024-03-22T09:22:44;100270.94;;;19.49;42.50
8637;BME280;4356;49.068;8.658;2024-03-22T09:25:10;100255.63;;;19.48;42.56
8637;BME280;4356;49.068;8.658;2024-03-22T09:27:35;100248.91;;;19.51;42.54
8637;BME280;4356;49.068;8.658;2024-03-22T09:30:01;100252.03;;;19.54;42.68
8637;BME280;4356;49.068;8.658;2024-03-22T09:32:29;100246.34;;;19.56;42.57
8637;BME280;4356;49.068;8.658;2024-03-22T09:34:54;100235.91;;;19.53;42.55
8637;BME280;4356;49.068;8.658;2024-03-22T09:37:20;100235.06;;;19.52;42.36
8637;BME280;4356;49.068;8.658;2024-03-22T09:39:46;100241.28;;;19.59;42.44
8637;BME280;4356;49.068;8.658;2024-03-22T09:42:16;100232.28;;;19.59;42.29
8637;BME280;4356;49.068;8.658;2024-03-22T09:44:49;100222.44;;;19.58;42.17
8637;BME280;4356;49.068;8.658;2024-03-22T09:47:16;100212.38;;;19.58;42.40
8637;BME280;4356;49.068;8.658;2024-03-22T09:49:42;100220.09;;;19.61;42.38
8637;BME280;4356;49.068;8.658;2024-03-22T09:52:12;100212.75;;;19.62;42.47
8637;BME280;4356;49.068;8.658;2024-03-22T09:54:42;100210.03;;;19.62;42.47
8637;BME280;4356;49.068;8.658;2024-03-22T09:57:14;100216.50;;;19.67;42.29
8637;BME280;4356;49.068;8.658;2024-03-22T09:59:43;100207.94;;;19.64;42.33
8637;BME280;4356;49.068;8.658;2024-03-22T10:02:11;100212.69;;;19.68;42.52
8637;BME280;4356;49.068;8.658;2024-03-22T10:04:40;100212.09;;;19.66;42.58
8637;BME280;4356;49.068;8.658;2024-03-22T10:07:06;100201.19;;;19.66;42.64
8637;BME280;4356;49.068;8.658;2024-03-22T10:09:33;100207.63;;;19.72;42.90
8637;BME280;4356;49.068;8.658;2024-03-22T10:11:58;100196.34;;;19.68;42.65
8637;BME280;4356;49.068;8.658;2024-03-22T10:14:24;100201.34;;;19.71;42.73
8637;BME280;4356;49.068;8.658;2024-03-22T10:16:55;100197.78;;;19.71;42.67
8637;BME280;4356;49.068;8.658;2024-03-22T10:19:21;100197.13;;;19.75;42.57
8637;BME280;4356;49.068;8.658;2024-03-22T10:21:48;100196.31;;;19.75;42.77
8637;BME280;4356;49.068;8.658;2024-03-22T10:24:14;100187.50;;;19.73;42.59
8637;BME280;4356;49.068;8.658;2024-03-22T10:26:40;100187.66;;;19.78;42.45
8637;BME280;4356;49.068;8.658;2024-03-22T10:29:06;100169.69;;;19.70;42.69
8637;BME280;4356;49.068;8.658;2024-03-22T10:31:31;100183.63;;;19.80;42.54
8637;BME280;4356;49.068;8.658;2024-03-22T10:33:58;100180.72;;;19.82;42.37
8637;BME280;4356;49.068;8.658;2024-03-22T10:36:24;100172.53;;;19.82;42.45
8637;BME280;4356;49.068;8.658;2024-03-22T10:38:50;100170.41;;;19.84;42.38
8637;BME280;4356;49.068;8.658;2024-03-22T10:41:17;100173.72;;;19.86;41.99
8637;BME280;4356;49.068;8.658;2024-03-22T10:43:43;100164.13;;;19.83;42.35
8637;BME280;4356;49.068;8.658;2024-03-22T10:46:09;100155.47;;;19.86;42.42
8637;BME280;4356;49.068;8.658;2024-03-22T10:48:35;100169.72;;;19.88;42.38
8637;BME280;4356;49.068;8.658;2024-03-22T10:51:01;100155.88;;;19.90;42.21
8637;BME280;4356;49.068;8.658;2024-03-22T10:53:28;100153.75;;;19.92;42.24
8637;BME280;4356;49.068;8.658;2024-03-22T10:55:57;100150.78;;;19.93;42.20
8637;BME280;4356;49.068;8.658;2024-03-22T10:58:25;100146.84;;;19.89;41.85
8637;BME280;4356;49.068;8.658;2024-03-22T11:00:51;100141.56;;;19.94;41.91
8637;BME280;4356;49.068;8.658;2024-03-22T11:03:20;100134.66;;;19.92;41.54
8637;BME280;4356;49.068;8.658;2024-03-22T11:05:49;100133.81;;;19.91;41.58
8637;BME280;4356;49.068;8.658;2024-03-22T11:08:36;100126.84;;;19.95;41.53
8637;BME280;4356;49.068;8.658;2024-03-22T11:11:11;100129.34;;;19.97;41.29
8637;BME280;4356;49.068;8.658;2024-03-22T11:13:39;100118.91;;;19.94;41.11
8637;BME280;4356;49.068;8.658;2024-03-22T11:16:05;100110.94;;;19.92;41.21
8637;BME280;4356;49.068;8.658;2024-03-22T11:18:30;100117.00;;;19.94;41.07
8637;BME280;4356;49.068;8.658;2024-03-22T11:20:56;100111.09;;;19.97;41.18
8637;BME280;4356;49.068;8.658;2024-03-22T11:23:21;100102.31;;;19.95;40.83
8637;BME280;4356;49.068;8.658;2024-03-22T11:25:46;100102.75;;;19.92;40.78
8637;BME280;4356;49.068;8.658;2024-03-22T11:28:12;100083.66;;;19.92;41.20
8637;BME280;4356;49.068;8.658;2024-03-22T11:30:37;100072.16;;;19.90;41.04
8637;BME280;4356;49.068;8.658;2024-03-22T11:33:04;100088.59;;;20.02;40.79
8637;BME280;4356;49.068;8.658;2024-03-22T11:35:33;100084.81;;;20.03;41.14
8637;BME280;4356;49.068;8.658;2024-03-22T11:37:59;100074.13;;;20.01;41.02
8637;BME280;4356;49.068;8.658;2024-03-22T11:40:31;100073.66;;;20.04;40.42
8637;BME280;4356;49.068;8.658;2024-03-22T11:42:58;100064.81;;;20.09;40.04
8637;BME280;4356;49.068;8.658;2024-03-22T11:45:27;100058.28;;;20.10;40.12
8637;BME280;4356;49.068;8.658;2024-03-22T11:47:53;100055.53;;;20.10;40.45
8637;BME280;4356;49.068;8.658;2024-03-22T11:50:18;100039.88;;;20.05;40.13
8637;BME280;4356;49.068;8.658;2024-03-22T11:52:45;100025.63;;;20.03;39.97
8637;BME280;4356;49.068;8.658;2024-03-22T11:55:14;100031.38;;;20.13;40.01
8637;BME280;4356;49.068;8.658;2024-03-22T11:57:40;100028.88;;;20.12;39.82
8637;BME280;4356;49.068;8.658;2024-03-22T12:00:06;100026.50;;;20.15;39.71
8637;BME280;4356;49.068;8.658;2024-03-22T12:02:38;100021.47;;;20.19;39.67
8637;BME280;4356;49.068;8.658;2024-03-22T12:05:04;100029.66;;;20.19;39.68
8637;BME280;4356;49.068;8.658;2024-03-22T12:07:30;100012.50;;;20.12;39.92
8637;BME280;4356;49.068;8.658;2024-03-22T12:09:56;100016.25;;;20.17;39.56
8637;BME280;4356;49.068;8.658;2024-03-22T12:12:22;100015.53;;;20.22;39.52
8637;BME280;4356;49.068;8.658;2024-03-22T12:14:47;100015.53;;;20.22;39.60
8637;BME280;4356;49.068;8.658;2024-03-22T12:17:15;100002.72;;;20.22;39.84
8637;BME280;4356;49.068;8.658;2024-03-22T12:19:41;100003.94;;;20.26;39.47
8637;BME280;4356;49.068;8.658;2024-03-22T12:22:06;99999.09;;;20.28;39.46
8637;BME280;4356;49.068;8.658;2024-03-22T12:24:32;100000.97;;;20.28;39.40
8637;BME280;4356;49.068;8.658;2024-03-22T12:26:57;99984.59;;;20.28;39.40
8637;BME280;4356;49.068;8.658;2024-03-22T12:29:23;99988.16;;;20.28;39.54
8637;BME280;4356;49.068;8.658;2024-03-22T12:31:49;99984.72;;;20.33;39.71
8637;BME280;4356;49.068;8.658;2024-03-22T12:34:15;99979.88;;;20.35;39.49
8637;BME280;4356;49.068;8.658;2024-03-22T12:36:40;99978.59;;;20.37;39.27
8637;BME280;4356;49.068;8.658;2024-03-22T12:39:05;99967.53;;;20.32;39.58
8637;BME280;4356;49.068;8.658;2024-03-22T12:41:32;99978.94;;;20.41;39.18
8637;BME280;4356;49.068;8.658;2024-03-22T12:43:58;99966.59;;;20.38;39.24
8637;BME280;4356;49.068;8.658;2024-03-22T12:46:24;99973.50;;;20.41;39.35
8637;BME280;4356;49.068;8.658;2024-03-22T12:48:50;99971.38;;;20.43;39.23
8637;BME280;4356;49.068;8.658;2024-03-22T12:51:16;99971.38;;;20.43;39.41
8637;BME280;4356;49.068;8.658;2024-03-22T12:53:41;99959.59;;;20.42;39.36
8637;BME280;4356;49.068;8.658;2024-03-22T12:56:07;99957.25;;;20.46;39.53
8637;BME280;4356;49.068;8.658;2024-03-22T12:58:33;99952.38;;;20.48;39.50
8637;BME280;4356;49.068;8.658;2024-03-22T13:00:58;99957.59;;;20.49;39.58
8637;BME280;4356;49.068;8.658;2024-03-22T13:03:26;99950.50;;;20.48;39.36
8637;BME280;4356;49.068;8.658;2024-03-22T13:05:52;99945.63;;;20.51;39.08